Bixby, Oklahoma
Current Conditions -  °F | °C
As of 11:53 AM on Wednesday 28 Jan 2015 (Local Time) from KRVS Reporting Station
Clear Clear  
Wind Chill: 73°   Ceiling: Unl
Heat Index: 73°   Visibility: 10mi
Dew Point: 39°   Wind: 17mph
Humidity: 29%   Direction: 190°S
Pressure: 29.95"   Gusts: 24mph
Location:  35.94°N, 95.88°W
Report Text: KRVS 281753Z 19015G21KT 10SM CLR 23/04 A2995 RMK AO2 PRESFR SLP149 T02280039 10228 20022 58032
Loading
Personal Weather Stations






























Interactive Weather Map New forecast layout! Learn more

10-Day Weather Forecast

Advertisements
Track Severe Weather on mobile